Time;durP1;ratioP1;P1;durP2;ratioP2;P2;SDS_P1;SDS_P2;PMS_P1;PMS_P2;Temp;Humidity;BMP_temperature;BMP_pressure;BME280_temperature;BME280_humidity;BME280_pressure;Samples;Min_cycle;Max_cycle;Signal;HPM_P1;HPM_P2
2022/05/29 00:00:07;;;;;;;56.10;20.55;;;;;;;26.80;89.23;97157.59;4853275;29;20133;-67
2022/05/29 00:02:50;;;;;;;56.67;23.45;;;;;;;26.61;89.39;97156.34;4852056;29;20057;-68
2022/05/29 00:05:40;;;;;;;59.88;23.77;;;;;;;26.66;92.28;97156.59;4851154;29;20057;-68
2022/05/29 00:08:31;;;;;;;59.28;25.48;;;;;;;26.71;92.30;97164.81;4851911;29;20053;-67
2022/05/29 00:11:22;;;;;;;69.25;28.88;;;;;;;26.60;91.83;97165.25;4852022;29;20048;-67
2022/05/29 00:14:04;;;;;;;81.63;30.27;;;;;;;26.45;92.73;97159.16;4842735;29;20057;-67
2022/05/29 00:16:53;;;;;;;67.07;27.25;;;;;;;26.50;92.53;97156.81;4851578;29;20068;-67
2022/05/29 00:19:36;;;;;;;61.00;25.55;;;;;;;26.50;92.62;97162.09;4851572;29;20549;-67
2022/05/29 00:22:29;;;;;;;65.18;24.70;;;;;;;26.63;92.63;97167.53;4851552;29;20109;-66
2022/05/29 00:25:18;;;;;;;63.85;23.58;;;;;;;26.60;92.07;97162.63;4840478;29;20145;-67
2022/05/29 00:28:06;;;;;;;53.60;22.67;;;;;;;26.76;92.88;97177.44;4859110;29;20060;-67
2022/05/29 00:30:50;;;;;;;49.20;23.38;;;;;;;26.76;91.23;97172.16;4854435;29;20049;-66
2022/05/29 00:33:39;;;;;;;62.03;25.98;;;;;;;26.73;92.02;97177.84;4852116;29;20148;-67
2022/05/29 00:36:33;;;;;;;55.17;22.63;;;;;;;26.81;91.62;97180.38;4846015;29;20042;-67
2022/05/29 00:39:23;;;;;;;51.58;22.25;;;;;;;26.80;91.89;97184.84;4850819;29;20077;-67
2022/05/29 00:42:08;;;;;;;47.35;22.85;;;;;;;26.74;91.28;97184.75;4848246;29;20076;-67
2022/05/29 00:44:57;;;;;;;45.17;21.33;;;;;;;26.82;93.11;97188.09;4849022;29;20706;-67
2022/05/29 00:47:40;;;;;;;49.30;21.23;;;;;;;26.80;92.01;97187.50;4846453;29;20198;-68
2022/05/29 00:50:36;;;;;;;47.88;21.20;;;;;;;26.82;91.34;97182.81;4821709;29;20123;-67
2022/05/29 00:53:25;;;;;;;49.80;21.55;;;;;;;26.85;90.96;97192.22;4825780;29;20508;-67
2022/05/29 00:56:13;;;;;;;49.38;21.15;;;;;;;26.80;91.24;97195.41;4815554;29;20087;-68
2022/05/29 00:59:04;;;;;;;41.95;21.05;;;;;;;26.94;93.61;97201.72;4815255;29;20484;-68
2022/05/29 01:01:52;;;;;;;50.20;23.83;;;;;;;26.88;91.75;97211.19;4814046;29;20057;-67
2022/05/29 01:04:37;;;;;;;47.88;21.73;;;;;;;27.03;93.62;97212.00;4814201;29;20165;-67
2022/05/29 01:07:29;;;;;;;47.25;23.05;;;;;;;27.08;92.24;97224.66;4813890;29;20046;-67
2022/05/29 01:10:11;;;;;;;48.13;23.50;;;;;;;27.02;93.40;97218.28;4811153;29;20048;-67
2022/05/29 01:13:33;;;;;;;41.10;20.77;;;;;;;27.21;93.00;97210.78;4815259;29;20066;-68
2022/05/29 01:16:21;;;;;;;46.00;23.30;;;;;;;27.22;91.44;97220.34;4808813;29;20177;-66
2022/05/29 01:19:44;;;;;;;43.70;20.95;;;;;;;27.26;91.83;97221.59;4817557;29;20507;-67
2022/05/29 01:23:03;;;;;;;37.03;18.75;;;;;;;27.38;89.67;97228.03;4816503;29;20111;-67
2022/05/29 01:26:10;;;;;;;33.53;18.05;;;;;;;27.40;89.66;97231.31;4817449;29;20054;-67
2022/05/29 01:29:10;;;;;;;35.22;18.58;;;;;;;27.61;89.08;97235.84;4817473;29;20793;-66
2022/05/29 01:32:03;;;;;;;34.30;19.33;;;;;;;27.72;87.86;97233.50;4831453;29;20074;-67
2022/05/29 01:34:55;;;;;;;38.20;20.35;;;;;;;27.80;87.81;97240.50;4816269;29;20636;-68
2022/05/29 01:37:58;;;;;;;35.00;21.20;;;;;;;27.87;86.60;97236.09;4815702;29;20122;-67
2022/05/29 01:40:46;;;;;;;37.10;20.08;;;;;;;27.93;84.34;97234.53;4816746;29;20054;-67
2022/05/29 01:43:51;;;;;;;33.45;20.33;;;;;;;27.96;84.91;97252.66;4815813;29;20054;-66
2022/05/29 01:46:35;;;;;;;29.75;19.17;;;;;;;28.25;83.27;97257.84;4814621;29;20069;-67
2022/05/29 01:49:34;;;;;;;31.58;18.85;;;;;;;28.53;81.71;97266.59;4837354;29;22024;-68
2022/05/29 01:52:45;;;;;;;35.25;20.55;;;;;;;28.75;78.83;97279.78;4851441;29;20149;-67
2022/05/29 01:55:49;;;;;;;36.75;19.48;;;;;;;29.23;77.70;97284.13;4853033;29;20049;-68
2022/05/29 01:58:45;;;;;;;32.80;20.77;;;;;;;29.29;72.88;97291.28;4851348;29;20129;-67
2022/05/29 02:01:31;;;;;;;42.35;19.65;;;;;;;29.45;74.54;97305.28;4852625;29;20061;-67
2022/05/29 02:04:25;;;;;;;34.95;17.00;;;;;;;29.76;74.11;97318.06;4853513;29;20077;-67
2022/05/29 02:10:41;;;;;;;29.05;16.00;;;;;;;29.97;71.44;97341.81;4853568;29;20061;-67
2022/05/29 02:13:37;;;;;;;32.90;16.02;;;;;;;30.36;73.24;97325.09;4853643;29;20059;-67
2022/05/29 02:16:38;;;;;;;30.45;17.08;;;;;;;30.56;69.76;97293.25;4852919;29;20061;-67
2022/05/29 02:19:33;;;;;;;28.95;16.60;;;;;;;30.94;66.92;97296.03;4851429;29;20065;-67
2022/05/29 02:22:25;;;;;;;32.83;16.20;;;;;;;30.77;67.57;97312.44;4852134;29;20474;-68
2022/05/29 02:25:24;;;;;;;33.40;15.40;;;;;;;31.13;68.22;97337.78;4851802;29;20065;-67
2022/05/29 02:28:14;;;;;;;35.83;17.83;;;;;;;31.31;64.54;97334.41;4850575;29;20049;-68
2022/05/29 02:31:08;;;;;;;32.00;17.35;;;;;;;31.87;63.23;97318.63;4851169;29;20297;-67
2022/05/29 02:34:13;;;;;;;34.03;18.27;;;;;;;32.03;62.67;97310.13;4852202;29;20049;-68
2022/05/29 02:37:11;;;;;;;28.05;16.77;;;;;;;31.87;64.06;97323.94;4851840;29;20133;-68
2022/05/29 02:40:29;;;;;;;28.00;15.98;;;;;;;31.96;59.56;97338.66;4850688;29;20149;-69
2022/05/29 02:43:40;;;;;;;27.05;14.10;;;;;;;32.30;58.29;97335.59;4851492;29;20080;-67
2022/05/29 02:46:28;;;;;;;;;;;;;;;31.95;60.58;97345.00;4850580;29;20045;-68
2022/05/29 02:49:21;;;;;;;23.23;13.05;;;;;;;32.10;58.71;97342.88;4854772;29;20058;-68
2022/05/29 02:52:09;;;;;;;30.38;13.57;;;;;;;32.86;58.22;97342.75;4852803;29;20498;-68
2022/05/29 02:54:59;;;;;;;31.27;15.05;;;;;;;33.03;56.39;97340.31;4844721;29;20110;-68
2022/05/29 02:57:41;;;;;;;26.45;14.75;;;;;;;33.53;55.28;97361.53;4845742;29;20053;-68
2022/05/29 03:00:32;;;;;;;30.42;15.07;;;;;;;33.44;53.51;97353.03;4846615;29;20057;-68
2022/05/29 03:03:48;;;;;;;25.08;13.85;;;;;;;33.66;55.01;97340.84;4848262;29;20145;-68
2022/05/29 03:06:57;;;;;;;33.33;15.10;;;;;;;33.87;54.20;97341.41;4852220;29;20053;-68
2022/05/29 03:09:49;;;;;;;24.90;15.13;;;;;;;34.00;53.67;97354.63;4847841;29;20137;-68
2022/05/29 03:12:55;;;;;;;48.15;23.35;;;;;;;33.47;53.98;97365.94;4851674;29;20049;-67
2022/05/29 03:15:57;;;;;;;37.30;17.77;;;;;;;34.09;52.93;97346.00;4854725;29;20049;-68
2022/05/29 03:18:51;;;;;;;32.50;16.00;;;;;;;34.12;52.11;97342.06;4852214;29;20065;-68
2022/05/29 03:22:02;;;;;;;29.92;15.75;;;;;;;33.73;53.19;97340.78;4854195;29;20060;-67
2022/05/29 03:25:06;;;;;;;43.08;20.48;;;;;;;33.33;54.13;97345.75;4852964;29;20064;-68
2022/05/29 03:27:58;;;;;;;26.45;17.05;;;;;;;33.79;52.21;97346.03;4852410;29;20053;-68
2022/05/29 03:30:45;;;;;;;29.25;14.27;;;;;;;33.90;51.14;97340.97;4853027;29;20365;-68
2022/05/29 03:33:35;;;;;;;34.25;16.00;;;;;;;34.42;51.16;97334.84;4847690;29;20192;-67
2022/05/29 03:36:17;;;;;;;29.30;13.80;;;;;;;34.52;51.78;97335.09;4832158;29;20695;-67
2022/05/29 03:39:06;;;;;;;27.60;13.82;;;;;;;34.30;51.81;97344.72;4850147;29;20065;-68
2022/05/29 03:41:53;;;;;;;33.67;16.23;;;;;;;34.67;52.83;97336.50;4852550;29;20064;-68
2022/05/29 03:44:41;;;;;;;35.20;16.58;;;;;;;34.67;50.06;97336.50;4852948;29;20497;-68
2022/05/29 03:47:23;;;;;;;30.88;13.15;;;;;;;35.09;49.32;97334.53;4856138;29;20513;-68
2022/05/29 03:50:16;;;;;;;28.63;14.38;;;;;;;34.88;49.34;97336.75;4851205;29;20053;-67
2022/05/29 03:53:05;;;;;;;37.15;14.05;;;;;;;35.07;52.11;97334.78;4835108;29;20045;-67
2022/05/29 03:55:54;;;;;;;32.35;13.05;;;;;;;35.01;51.29;97327.69;4834570;29;20422;-67
2022/05/29 03:58:36;;;;;;;34.80;12.43;;;;;;;35.49;48.17;97323.88;4852243;29;20050;-68
2022/05/29 04:01:26;;;;;;;27.15;12.50;;;;;;;35.34;46.77;97315.56;4851995;29;20053;-68
2022/05/29 04:04:10;;;;;;;29.60;12.40;;;;;;;35.42;47.29;97307.13;4851944;29;20173;-68
2022/05/29 04:06:59;;;;;;;33.40;11.55;;;;;;;35.29;47.54;97303.66;4852671;29;20137;-68
2022/05/29 04:12:55;;;;;;;25.60;11.38;;;;;;;35.37;47.00;97282.91;4852544;29;20514;-68
2022/05/29 04:15:47;;;;;;;32.22;11.38;;;;;;;36.02;46.70;97286.84;4851721;29;20064;-67
2022/05/29 04:18:28;;;;;;;35.53;13.32;;;;;;;35.82;47.09;97296.41;4849234;29;20064;-67
2022/05/29 04:21:17;;;;;;;21.02;11.27;;;;;;;35.70;47.41;97299.09;4833453;29;20050;-67
2022/05/29 04:24:07;;;;;;;36.25;12.77;;;;;;;35.53;46.54;97317.00;4849131;29;20049;-68
2022/05/29 04:26:56;;;;;;;37.78;10.98;;;;;;;35.37;47.62;97320.41;4850397;29;20105;-68
2022/05/29 04:29:39;;;;;;;25.40;10.07;;;;;;;35.90;45.04;97318.28;4851380;29;20151;-67
2022/05/29 04:35:31;;;;;;;25.17;9.35;;;;;;;36.47;43.11;97325.44;4850028;29;20098;-68
2022/05/29 04:38:23;;;;;;;24.23;9.32;;;;;;;36.37;44.94;97326.91;4837444;29;20430;-67
2022/05/29 04:41:06;;;;;;;29.48;9.88;;;;;;;36.70;43.55;97320.75;4852194;29;20109;-68
2022/05/29 04:43:55;;;;;;;25.63;10.05;;;;;;;36.29;44.12;97331.84;4850409;29;20141;-68
2022/05/29 04:46:44;;;;;;;27.25;9.80;;;;;;;35.87;45.48;97321.44;4850132;29;20486;-67
2022/05/29 04:49:26;;;;;;;24.73;9.23;;;;;;;36.49;46.36;97320.63;4851158;29;20397;-68
2022/05/29 04:52:15;;;;;;;31.17;11.32;;;;;;;36.58;44.75;97325.34;4848641;29;20058;-68
2022/05/29 04:54:57;;;;;;;21.90;8.50;;;;;;;36.59;44.17;97318.91;4856275;29;20117;-68
2022/05/29 04:57:48;;;;;;;28.00;8.85;;;;;;;36.74;44.47;97316.50;4851150;29;20077;-67
2022/05/29 05:00:37;;;;;;;25.67;8.65;;;;;;;36.59;44.83;97318.91;4850645;29;20049;-68
2022/05/29 05:03:27;;;;;;;34.25;11.95;;;;;;;36.96;43.46;97313.84;4849858;29;20566;-68
2022/05/29 05:06:10;;;;;;;24.55;8.57;;;;;;;36.71;42.87;97319.69;4855627;29;20140;-68
2022/05/29 05:09:00;;;;;;;38.50;11.43;;;;;;;36.83;43.66;97318.75;4849417;29;20057;-68
2022/05/29 05:11:41;;;;;;;29.73;9.15;;;;;;;37.15;42.70;97319.78;4850331;29;20344;-67
2022/05/29 05:14:30;;;;;;;29.27;9.23;;;;;;;37.28;41.67;97332.06;4851272;29;20045;-68
2022/05/29 05:17:12;;;;;;;32.58;9.68;;;;;;;36.36;45.40;97330.66;4838138;29;20057;-68
2022/05/29 05:20:02;;;;;;;30.90;9.45;;;;;;;36.89;42.86;97336.56;4836327;29;20068;-67
2022/05/29 05:22:52;;;;;;;26.63;8.40;;;;;;;36.64;41.11;97340.47;4851316;29;20490;-71
2022/05/29 05:25:36;;;;;;;29.85;8.68;;;;;;;36.49;43.58;97334.03;4851583;29;20617;-70
2022/05/29 05:28:24;;;;;;;26.77;10.02;;;;;;;36.98;46.83;97333.22;4850308;29;20141;-69
2022/05/29 05:31:06;;;;;;;36.45;8.98;;;;;;;36.62;44.01;97342.59;4849621;29;20049;-71
2022/05/29 05:33:55;;;;;;;35.53;9.88;;;;;;;37.37;43.25;97334.03;4850493;29;20060;-69
2022/05/29 05:36:38;;;;;;;23.75;8.90;;;;;;;37.29;46.13;97337.16;4852338;29;20061;-69
2022/05/29 05:39:26;;;;;;;31.15;8.73;;;;;;;36.72;42.96;97339.28;4848848;29;20068;-69
2022/05/29 05:42:09;;;;;;;32.47;10.65;;;;;;;37.04;41.43;97336.78;4850639;29;20367;-70
2022/05/29 05:44:57;;;;;;;32.92;9.13;;;;;;;37.10;43.41;97333.13;4851111;29;20041;-70
2022/05/29 05:47:39;;;;;;;26.83;9.23;;;;;;;36.79;44.29;97321.97;4848279;29;20058;-70
2022/05/29 05:50:36;;;;;;;28.77;9.00;;;;;;;37.00;43.74;97325.72;4851330;29;20050;-70
2022/05/29 05:53:12;;;;;;;24.50;10.63;;;;;;;37.31;47.01;97326.97;4850539;29;20380;-69
2022/05/29 05:56:10;;;;;;;31.75;10.15;;;;;;;36.87;44.13;97322.59;4852132;29;20057;-70
2022/05/29 05:58:52;;;;;;;26.75;9.13;;;;;;;37.29;43.16;97328.28;4853298;29;20196;-71
2022/05/29 06:01:48;;;;;;;23.80;7.97;;;;;;;36.75;41.75;97320.81;4862071;29;20053;-70
2022/05/29 06:04:24;;;;;;;28.30;9.15;;;;;;;36.87;42.54;97319.91;4861511;29;20053;-69
2022/05/29 06:07:14;;;;;;;22.48;8.27;;;;;;;37.02;41.59;97322.81;4863355;29;20056;-73
2022/05/29 06:10:03;;;;;;;27.52;8.20;;;;;;;36.80;41.40;97315.50;4861365;29;20064;-70
2022/05/29 06:12:53;;;;;;;29.08;8.40;;;;;;;37.05;42.07;97311.53;4856633;29;20049;-69
2022/05/29 06:15:46;;;;;;;30.48;8.73;;;;;;;37.09;42.21;97313.50;4855570;29;20117;-69
2022/05/29 06:18:42;;;;;;;25.25;8.38;;;;;;;37.06;40.09;97313.19;4854511;29;20620;-68
2022/05/29 06:21:18;;;;;;;29.48;8.70;;;;;;;36.90;40.80;97303.28;4854125;29;20061;-70
2022/05/29 06:24:08;;;;;;;21.75;8.73;;;;;;;37.02;42.61;97298.63;4852225;29;20431;-71
2022/05/29 06:26:50;;;;;;;31.15;8.27;;;;;;;37.12;40.85;97306.81;4837383;29;20138;-69
2022/05/29 06:29:39;;;;;;;21.17;7.30;;;;;;;37.35;40.98;97297.75;4853466;29;20132;-69
2022/05/29 06:32:22;;;;;;;18.95;7.57;;;;;;;37.05;40.18;97292.75;4842375;29;20053;-67
2022/05/29 06:35:13;;;;;;;27.27;9.10;;;;;;;37.25;43.55;97300.28;4844724;29;20146;-71
2022/05/29 06:37:54;;;;;;;40.40;10.48;;;;;;;37.10;40.96;97296.34;4852117;29;20517;-69
2022/05/29 06:40:49;;;;;;;28.90;10.10;;;;;;;36.89;41.82;97301.66;4846356;29;20133;-67
2022/05/29 06:43:32;;;;;;;33.53;9.65;;;;;;;36.88;43.89;97289.31;4850907;29;20049;-70
2022/05/29 06:46:21;;;;;;;34.83;10.90;;;;;;;36.78;42.27;97284.59;4852549;29;20473;-71
2022/05/29 06:49:04;;;;;;;25.33;8.55;;;;;;;37.18;43.66;97287.06;4851999;29;20061;-70
2022/05/29 06:51:59;;;;;;;29.52;9.07;;;;;;;37.53;43.41;97286.63;4851213;29;20455;-69
2022/05/29 06:54:49;;;;;;;26.13;8.63;;;;;;;37.44;44.06;97280.06;4852560;29;20053;-69
2022/05/29 06:57:41;;;;;;;32.40;8.98;;;;;;;37.62;42.61;97287.03;4835116;29;20049;-68
2022/05/29 07:09:47;;;;;;;27.00;8.80;;;;;;;37.16;40.68;97276.56;4853382;29;20493;-68
2022/05/29 07:12:31;;;;;;;;;;;;;;;37.03;41.05;97271.53;4854158;29;20136;-68
2022/05/29 07:15:20;;;;;;;31.55;8.23;;;;;;;37.31;41.92;97264.34;4854446;29;19927;-67
2022/05/29 07:18:14;;;;;;;31.63;8.35;;;;;;;37.60;50.02;97259.63;4853591;29;20383;-67
2022/05/29 07:20:56;;;;;;;36.05;9.30;;;;;;;37.47;42.57;97260.78;4854642;29;20052;-67
2022/05/29 07:23:46;;;;;;;39.90;9.18;;;;;;;37.46;42.35;97253.78;4851367;29;20109;-68
2022/05/29 07:26:28;;;;;;;;;;;;;;;37.51;41.84;97251.16;4853083;29;20050;-70
2022/05/29 07:29:18;;;;;;;44.28;10.48;;;;;;;37.48;40.29;97252.47;4851257;29;19971;-69
2022/05/29 07:32:00;;;;;;;;;;;;;;;37.45;41.38;97247.56;4852673;29;20145;-70
2022/05/29 07:34:48;;;;;;;23.77;8.05;;;;;;;37.60;41.58;97244.25;4851871;29;19991;-70
2022/05/29 07:37:32;;;;;;;30.15;8.73;;;;;;;37.80;43.51;97244.47;4854746;29;20490;-71
2022/05/29 07:40:20;;;;;;;29.00;10.30;;;;;;;37.50;40.78;97234.22;4852831;29;20157;-70
2022/05/29 07:46:17;;;;;;;39.63;9.23;;;;;;;37.58;46.32;97235.63;4852145;29;20058;-69
2022/05/29 07:48:53;;;;;;;27.10;9.35;;;;;;;37.45;42.51;97234.13;4851036;29;20056;-71
2022/05/29 07:51:48;;;;;;;;;;;;;;;37.43;42.68;97230.91;4851090;29;20487;-69
2022/05/29 07:54:43;;;;;;;26.45;8.32;;;;;;;37.77;44.23;97222.66;4851455;29;20263;-70
2022/05/29 07:57:32;;;;;;;26.60;8.90;;;;;;;37.50;42.71;97219.97;4852469;29;20478;-69
2022/05/29 08:00:18;;;;;;;27.27;10.05;;;;;;;37.58;41.98;97222.19;4856401;29;20061;-71
2022/05/29 08:03:07;;;;;;;31.98;7.82;;;;;;;37.35;40.25;97212.56;4840272;29;20046;-69
2022/05/29 08:05:57;;;;;;;36.13;8.13;;;;;;;37.28;42.19;97213.81;4852841;29;20117;-74
2022/05/29 08:08:39;;;;;;;27.98;8.05;;;;;;;37.07;40.90;97210.03;4854557;29;20429;-73
2022/05/29 08:11:29;;;;;;;33.05;8.20;;;;;;;37.24;42.62;97202.75;4853940;29;20050;-72
2022/05/29 08:14:10;;;;;;;23.80;8.48;;;;;;;37.41;44.92;97203.47;4853587;29;20350;-70
2022/05/29 08:17:00;;;;;;;26.45;8.15;;;;;;;37.34;42.46;97208.25;4852607;29;20169;-71
2022/05/29 08:19:42;;;;;;;27.85;8.13;;;;;;;37.37;42.54;97199.66;4853379;29;20149;-71
2022/05/29 08:22:31;;;;;;;34.25;8.02;;;;;;;37.31;40.75;97202.53;4853426;29;20050;-73
2022/05/29 08:31:29;;;;;;;29.83;9.05;;;;;;;37.37;40.20;97186.22;4850672;29;20050;-72
2022/05/29 08:34:12;;;;;;;23.40;7.53;;;;;;;37.36;41.00;97189.97;4847762;29;20072;-70
2022/05/29 08:37:07;;;;;;;26.13;8.30;;;;;;;37.44;41.68;97176.06;4852314;29;20101;-71
2022/05/29 08:39:43;;;;;;;25.52;8.73;;;;;;;37.27;39.64;97178.06;4855041;29;20042;-70
2022/05/29 08:42:32;;;;;;;;;;;;;;;37.33;40.37;97179.75;4866608;29;20053;-70
2022/05/29 08:45:23;;;;;;;25.10;7.15;;;;;;;37.25;41.61;97169.44;4861625;29;19924;-70
2022/05/29 08:48:05;;;;;;;26.63;8.27;;;;;;;37.10;41.91;97159.31;4863653;29;20038;-70
2022/05/29 08:51:12;;;;;;;25.98;7.20;;;;;;;37.12;39.17;97161.72;4858132;29;20057;-69
2022/05/29 08:54:15;;;;;;;20.70;7.82;;;;;;;37.04;40.95;97164.88;4851986;29;20190;-69
2022/05/29 08:57:31;;;;;;;21.67;6.68;;;;;;;36.85;41.33;97152.84;4852929;29;20502;-69
2022/05/29 09:00:45;;;;;;;25.30;7.03;;;;;;;36.93;39.96;97155.09;4852297;29;20050;-68
2022/05/29 09:03:46;;;;;;;27.25;8.10;;;;;;;37.05;39.41;97153.06;4852660;29;20057;-70
2022/05/29 09:06:37;;;;;;;20.83;7.05;;;;;;;37.16;40.60;97141.41;4852808;29;20053;-71
2022/05/29 09:09:25;;;;;;;33.30;8.38;;;;;;;37.15;41.52;97134.41;4851742;29;20053;-69
2022/05/29 09:12:31;;;;;;;27.05;6.65;;;;;;;37.16;42.28;97127.97;4862374;29;20056;-72
2022/05/29 09:15:39;;;;;;;24.13;6.65;;;;;;;37.17;39.75;97124.22;4864487;29;20056;-69
2022/05/29 09:18:37;;;;;;;29.35;7.57;;;;;;;37.19;38.29;97124.78;4851577;29;20477;-72
2022/05/29 09:21:52;;;;;;;30.95;7.22;;;;;;;37.04;40.47;97116.50;4850277;29;20169;-70
2022/05/29 09:24:59;;;;;;;25.50;6.72;;;;;;;37.02;37.98;97114.09;4851897;29;20077;-72
2022/05/29 09:27:43;;;;;;;31.38;6.68;;;;;;;36.92;40.01;97114.00;4856281;29;20404;-72
2022/05/29 09:30:33;;;;;;;25.95;6.82;;;;;;;36.78;40.74;97112.75;4851451;29;20900;-72
2022/05/29 09:33:30;;;;;;;26.45;6.15;;;;;;;36.88;38.33;97104.03;4853492;29;20053;-71
2022/05/29 09:36:43;;;;;;;29.48;6.35;;;;;;;37.03;39.67;97101.50;4851664;29;20050;-70
2022/05/29 09:39:28;;;;;;;22.80;6.30;;;;;;;37.00;36.32;97093.94;4858425;29;20072;-72
2022/05/29 09:42:32;;;;;;;22.42;7.60;;;;;;;36.91;38.77;97087.38;4854761;29;20056;-71
2022/05/29 09:45:15;;;;;;;22.85;7.00;;;;;;;37.01;35.22;97106.28;4855234;29;20116;-71
2022/05/29 09:51:38;;;;;;;25.48;6.47;;;;;;;36.80;38.83;97083.75;4855563;29;20442;-72
2022/05/29 09:54:45;;;;;;;19.35;6.10;;;;;;;36.77;36.85;97082.41;4854915;29;20053;-73
2022/05/29 09:57:32;;;;;;;22.70;6.40;;;;;;;36.79;39.18;97066.88;4854967;29;20069;-71
2022/05/29 10:00:46;;;;;;;19.77;6.47;;;;;;;36.88;38.63;97061.06;4855671;29;20145;-71
2022/05/29 10:03:57;;;;;;;23.70;6.80;;;;;;;37.00;35.51;97061.69;4853492;29;20061;-74
2022/05/29 10:06:42;;;;;;;25.13;6.25;;;;;;;36.95;35.79;97064.34;4855507;29;20049;-73
2022/05/29 10:09:57;;;;;;;14.63;6.43;;;;;;;36.84;37.47;97055.38;4856014;29;20057;-72
2022/05/29 10:12:52;;;;;;;21.05;5.65;;;;;;;36.78;37.46;97054.50;4853478;29;20842;-70
2022/05/29 10:15:45;;;;;;;21.45;6.18;;;;;;;36.69;38.19;97050.66;4845996;29;20054;-71
2022/05/29 10:18:48;;;;;;;29.27;6.32;;;;;;;36.68;36.62;97048.22;4854975;29;20045;-71
2022/05/29 10:21:48;;;;;;;22.70;6.55;;;;;;;36.63;37.79;97048.94;4853929;29;20462;-72
2022/05/29 10:24:40;;;;;;;19.25;6.07;;;;;;;36.66;38.89;97037.72;4837930;29;20157;-70
2022/05/29 10:27:36;;;;;;;21.45;6.97;;;;;;;36.69;39.70;97039.91;4854562;29;20061;-70
2022/05/29 10:30:33;;;;;;;22.38;6.05;;;;;;;36.73;36.70;97030.28;4854355;29;20068;-73
2022/05/29 10:33:29;;;;;;;33.08;7.20;;;;;;;36.96;35.81;97028.38;4863366;29;20121;-69
2022/05/29 10:36:26;;;;;;;17.50;5.85;;;;;;;37.09;33.16;97033.31;4853067;29;20374;-71
2022/05/29 10:39:13;;;;;;;17.95;5.97;;;;;;;36.80;36.50;97030.88;4853720;29;20053;-70
2022/05/29 10:42:04;;;;;;;24.45;6.20;;;;;;;36.88;36.25;97020.78;4854558;29;20053;-70
2022/05/29 10:44:58;;;;;;;17.52;5.30;;;;;;;36.85;37.40;97003.28;4853159;29;20826;-69
2022/05/29 10:48:04;;;;;;;32.63;6.32;;;;;;;36.85;36.76;97005.16;4851677;29;20101;-70
2022/05/29 10:50:57;;;;;;;19.17;6.05;;;;;;;36.90;37.75;97002.50;4851487;29;20054;-70
2022/05/29 10:54:15;;;;;;;23.05;6.03;;;;;;;36.88;37.04;97005.44;4855800;29;20067;-69
2022/05/29 10:57:02;;;;;;;32.63;6.47;;;;;;;36.78;34.34;97006.19;4850895;29;20118;-70
2022/05/29 11:00:04;;;;;;;23.35;4.95;;;;;;;36.87;31.60;97003.03;4857529;29;20125;-68
2022/05/29 11:03:21;;;;;;;21.70;6.03;;;;;;;37.01;35.10;97001.53;4854747;29;20067;-69
2022/05/29 11:06:34;;;;;;;22.67;5.90;;;;;;;37.00;37.43;96990.00;4851982;29;20184;-69
2022/05/29 11:09:43;;;;;;;20.10;5.93;;;;;;;36.84;36.76;96987.41;4850141;29;20500;-68
2022/05/29 11:12:45;;;;;;;20.13;6.22;;;;;;;36.82;34.60;96985.00;4855123;29;20045;-68
2022/05/29 11:16:12;;;;;;;20.30;5.95;;;;;;;36.76;34.57;96978.78;4854251;29;20378;-68
2022/05/29 11:19:26;;;;;;;22.52;6.03;;;;;;;36.76;32.89;96965.34;4822981;29;20098;-68
2022/05/29 11:22:16;;;;;;;25.88;5.38;;;;;;;37.08;32.16;96968.03;4847138;29;20049;-68
2022/05/29 11:25:24;;;;;;;19.42;5.60;;;;;;;37.11;33.56;96961.34;4860817;29;20049;-69
2022/05/29 11:28:35;;;;;;;20.33;5.78;;;;;;;36.94;35.30;96950.72;4858088;29;20141;-69
2022/05/29 11:31:48;;;;;;;17.15;6.53;;;;;;;36.73;35.36;96947.06;4847470;29;20056;-69
2022/05/29 11:35:02;;;;;;;24.00;6.75;;;;;;;36.67;35.31;96941.88;4851895;29;20062;-69
2022/05/29 11:38:27;;;;;;;14.73;5.10;;;;;;;36.57;36.03;96934.53;4851731;29;20062;-69
2022/05/29 11:41:22;;;;;;;21.17;5.13;;;;;;;36.65;34.05;96941.31;4847907;29;20165;-70
2022/05/29 11:44:48;;;;;;;20.00;5.72;;;;;;;36.69;33.73;96939.78;4850507;29;20073;-70
2022/05/29 11:51:08;;;;;;;21.67;5.03;;;;;;;36.61;33.08;96943.69;4850424;29;20180;-70
2022/05/29 11:54:11;;;;;;;25.48;5.07;;;;;;;36.51;34.10;96945.47;4848919;29;20136;-70
2022/05/29 11:57:19;;;;;;;18.25;5.50;;;;;;;36.45;33.93;96951.84;4847242;29;20113;-70
2022/05/29 12:00:25;;;;;;;20.40;5.90;;;;;;;36.35;35.74;96947.19;4848839;29;20063;-71
2022/05/29 12:03:23;;;;;;;20.05;4.57;;;;;;;36.42;32.67;96945.09;4847980;29;20710;-69
2022/05/29 12:06:29;;;;;;;13.07;5.88;;;;;;;36.38;33.91;96957.44;4846165;29;20053;-70
2022/05/29 12:09:30;;;;;;;14.52;5.30;;;;;;;36.23;35.80;96971.50;4849267;29;20049;-71
2022/05/29 12:12:19;;;;;;;22.48;5.80;;;;;;;36.30;34.42;96965.91;4850045;29;20049;-70
2022/05/29 12:15:14;;;;;;;23.17;5.70;;;;;;;36.40;33.28;96971.38;4850005;29;20057;-71
2022/05/29 12:18:06;;;;;;;18.90;5.80;;;;;;;36.40;34.50;96971.38;4850438;29;20079;-70
2022/05/29 12:21:00;;;;;;;26.35;5.68;;;;;;;36.39;33.67;96969.78;4841938;29;20372;-71
2022/05/29 12:23:48;;;;;;;24.73;5.18;;;;;;;36.35;34.22;96971.34;4849593;29;20506;-70
2022/05/29 12:26:47;;;;;;;16.38;5.57;;;;;;;36.33;33.50;96984.19;4852833;29;20053;-70
2022/05/29 12:29:37;;;;;;;23.88;6.15;;;;;;;36.27;34.65;96983.31;4853117;29;20064;-69
2022/05/29 12:32:31;;;;;;;22.95;5.55;;;;;;;36.07;34.07;96979.56;4856185;29;20057;-72
2022/05/29 12:35:21;;;;;;;30.50;5.25;;;;;;;36.25;32.27;96990.00;4856367;29;20073;-73
2022/05/29 12:38:47;;;;;;;22.10;5.70;;;;;;;36.16;34.17;96983.44;4853948;29;20105;-72
2022/05/29 12:41:28;;;;;;;16.55;4.95;;;;;;;36.04;34.80;96984.38;4853370;29;20061;-72
2022/05/29 12:45:10;;;;;;;25.15;5.50;;;;;;;36.00;34.90;96993.16;4852493;29;20374;-69
2022/05/29 12:48:40;;;;;;;24.90;4.82;;;;;;;35.95;35.39;96993.91;4778046;29;20102;-69
2022/05/29 12:51:53;;;;;;;24.60;5.28;;;;;;;35.80;35.49;97004.44;4839026;29;20063;-69
2022/05/29 12:54:58;;;;;;;24.90;5.03;;;;;;;35.86;33.31;96998.06;4510019;29;10000713;-71
2022/05/29 12:58:07;;;;;;;20.38;4.97;;;;;;;35.81;36.02;97021.31;4848666;29;20064;-71
2022/05/29 13:01:07;;;;;;;97.85;9.93;;;;;;;35.81;35.21;97037.41;4848304;29;20053;-71
2022/05/29 13:04:15;;;;;;;108.82;11.77;;;;;;;35.62;35.98;97045.69;4513876;29;9999688;-74
2022/05/29 13:07:38;;;;;;;112.70;12.77;;;;;;;35.43;37.25;97048.88;4849916;29;20758;-70
2022/05/29 13:10:20;;;;;;;106.90;12.00;;;;;;;35.30;36.90;97050.81;4851872;29;20056;-72
2022/05/29 13:13:08;;;;;;;101.35;14.07;;;;;;;35.21;37.58;97054.91;4853763;29;20049;-75
2022/05/29 13:15:57;;;;;;;68.85;12.43;;;;;;;35.04;37.43;97059.44;4854935;29;20102;-75
2022/05/29 13:19:14;;;;;;;70.97;9.52;;;;;;;34.93;37.58;97060.31;4856598;29;20601;-74
2022/05/29 13:22:07;;;;;;;79.10;9.32;;;;;;;34.73;39.51;97055.38;4856546;29;20045;-71
2022/05/29 13:24:47;;;;;;;66.60;8.95;;;;;;;34.61;39.48;97064.50;4864364;29;20080;-75
2022/05/29 13:27:38;;;;;;;63.42;9.45;;;;;;;34.58;38.65;97063.09;4871745;29;20064;-72
2022/05/29 13:30:41;;;;;;;54.92;8.25;;;;;;;34.40;39.38;97072.09;4875340;29;20168;-70
2022/05/29 13:33:30;;;;;;;58.28;10.05;;;;;;;34.30;40.12;97068.44;4875114;29;20052;-70
2022/05/29 13:36:12;;;;;;;59.55;10.00;;;;;;;34.24;40.47;97072.88;4851444;29;20711;-71
2022/05/29 13:39:09;;;;;;;50.78;8.77;;;;;;;34.15;41.05;97082.25;4850671;29;20053;-73
2022/05/29 13:42:10;;;;;;;61.45;8.75;;;;;;;34.14;39.71;97080.63;4855220;29;20055;-70
2022/05/29 13:45:00;;;;;;;57.25;10.27;;;;;;;34.01;40.54;97080.84;4855906;29;20049;-71
2022/05/29 13:47:55;;;;;;;52.88;9.35;;;;;;;33.85;41.09;97074.34;4855730;29;20523;-70
2022/05/29 13:51:01;;;;;;;62.15;8.93;;;;;;;33.79;41.66;97084.13;4857385;29;20049;-71
2022/05/29 13:54:08;;;;;;;52.50;8.40;;;;;;;33.64;42.41;97081.06;4839465;29;20484;-73
2022/05/29 13:56:52;;;;;;;44.75;8.38;;;;;;;33.55;43.39;97077.13;4865415;29;20074;-74
2022/05/29 14:06:30;;;;;;;;;;;;;;;33.16;44.20;97083.88;4853260;29;20056;-70
2022/05/29 14:09:23;;;;;;;56.13;9.00;;;;;;;33.03;44.51;97084.88;4855030;29;19928;-69